sensor_id;sensor_type;location;lat;lon;timestamp;P1;P2;P0
44350;PMS5003;62766;62.622;17.912;2023-06-14T00:02:20;16;15;
44350;PMS5003;62766;62.622;17.912;2023-06-14T00:04:48;18;18;
44350;PMS5003;62766;62.622;17.912;2023-06-14T00:07:17;16;16;
44350;PMS5003;62766;62.622;17.912;2023-06-14T00:09:45;13;13;
44350;PMS5003;62766;62.622;17.912;2023-06-14T00:12:13;14;14;
44350;PMS5003;62766;62.622;17.912;2023-06-14T00:14:41;15;15;
44350;PMS5003;62766;62.622;17.912;2023-06-14T00:17:09;18;16;
44350;PMS5003;62766;62.622;17.912;2023-06-14T00:19:39;14;13;
44350;PMS5003;62766;62.622;17.912;2023-06-14T00:22:07;16;15;
44350;PMS5003;62766;62.622;17.912;2023-06-14T00:24:35;15;15;
44350;PMS5003;62766;62.622;17.912;2023-06-14T00:27:03;20;20;
44350;PMS5003;62766;62.622;17.912;2023-06-14T00:29:32;17;17;
44350;PMS5003;62766;62.622;17.912;2023-06-14T00:32:01;21;20;
44350;PMS5003;62766;62.622;17.912;2023-06-14T00:34:30;19;19;
44350;PMS5003;62766;62.622;17.912;2023-06-14T00:36:58;20;20;
44350;PMS5003;62766;62.622;17.912;2023-06-14T00:39:27;15;15;
44350;PMS5003;62766;62.622;17.912;2023-06-14T00:41:56;18;18;
44350;PMS5003;62766;62.622;17.912;2023-06-14T00:44:25;16;16;
44350;PMS5003;62766;62.622;17.912;2023-06-14T00:46:53;18;17;
44350;PMS5003;62766;62.622;17.912;2023-06-14T00:49:21;14;14;
44350;PMS5003;62766;62.622;17.912;2023-06-14T00:51:50;17;16;
44350;PMS5003;62766;62.622;17.912;2023-06-14T00:54:19;14;14;
44350;PMS5003;62766;62.622;17.912;2023-06-14T00:56:47;17;17;
44350;PMS5003;62766;62.622;17.912;2023-06-14T00:59:15;15;15;
44350;PMS5003;62766;62.622;17.912;2023-06-14T01:01:44;14;14;
44350;PMS5003;62766;62.622;17.912;2023-06-14T01:04:12;15;15;
44350;PMS5003;62766;62.622;17.912;2023-06-14T01:06:41;20;17;
44350;PMS5003;62766;62.622;17.912;2023-06-14T01:09:18;13;13;
44350;PMS5003;62766;62.622;17.912;2023-06-14T01:12:09;17;17;
44350;PMS5003;62766;62.622;17.912;2023-06-14T01:14:43;20;19;
44350;PMS5003;62766;62.622;17.912;2023-06-14T01:17:11;19;15;
44350;PMS5003;62766;62.622;17.912;2023-06-14T01:19:41;17;17;
44350;PMS5003;62766;62.622;17.912;2023-06-14T01:22:09;15;14;
44350;PMS5003;62766;62.622;17.912;2023-06-14T01:24:37;18;16;
44350;PMS5003;62766;62.622;17.912;2023-06-14T01:27:06;18;18;
44350;PMS5003;62766;62.622;17.912;2023-06-14T01:29:35;18;16;
44350;PMS5003;62766;62.622;17.912;2023-06-14T01:32:04;17;17;
44350;PMS5003;62766;62.622;17.912;2023-06-14T01:34:34;18;18;
44350;PMS5003;62766;62.622;17.912;2023-06-14T01:37:03;24;24;
44350;PMS5003;62766;62.622;17.912;2023-06-14T01:39:31;21;18;
44350;PMS5003;62766;62.622;17.912;2023-06-14T01:42:01;19;19;
44350;PMS5003;62766;62.622;17.912;2023-06-14T01:44:29;26;23;
44350;PMS5003;62766;62.622;17.912;2023-06-14T01:46:59;24;22;
44350;PMS5003;62766;62.622;17.912;2023-06-14T01:49:28;17;15;
44350;PMS5003;62766;62.622;17.912;2023-06-14T01:51:57;22;22;
44350;PMS5003;62766;62.622;17.912;2023-06-14T01:54:26;18;18;
44350;PMS5003;62766;62.622;17.912;2023-06-14T01:56:54;20;19;
44350;PMS5003;62766;62.622;17.912;2023-06-14T01:59:24;19;19;
44350;PMS5003;62766;62.622;17.912;2023-06-14T02:01:53;20;20;
44350;PMS5003;62766;62.622;17.912;2023-06-14T02:04:21;21;21;
44350;PMS5003;62766;62.622;17.912;2023-06-14T02:06:50;22;22;
44350;PMS5003;62766;62.622;17.912;2023-06-14T02:09:20;17;17;
44350;PMS5003;62766;62.622;17.912;2023-06-14T02:11:48;20;19;
44350;PMS5003;62766;62.622;17.912;2023-06-14T02:14:16;19;19;
44350;PMS5003;62766;62.622;17.912;2023-06-14T02:16:44;22;21;
44350;PMS5003;62766;62.622;17.912;2023-06-14T02:19:12;21;21;
44350;PMS5003;62766;62.622;17.912;2023-06-14T02:21:41;25;22;
44350;PMS5003;62766;62.622;17.912;2023-06-14T02:24:09;24;24;
44350;PMS5003;62766;62.622;17.912;2023-06-14T02:26:38;19;19;
44350;PMS5003;62766;62.622;17.912;2023-06-14T02:29:06;17;17;
44350;PMS5003;62766;62.622;17.912;2023-06-14T02:31:35;21;21;
44350;PMS5003;62766;62.622;17.912;2023-06-14T02:34:04;21;19;
44350;PMS5003;62766;62.622;17.912;2023-06-14T02:36:33;21;21;
44350;PMS5003;62766;62.622;17.912;2023-06-14T02:39:02;18;18;
44350;PMS5003;62766;62.622;17.912;2023-06-14T02:41:31;22;22;
44350;PMS5003;62766;62.622;17.912;2023-06-14T02:43:59;23;19;
44350;PMS5003;62766;62.622;17.912;2023-06-14T02:46:28;22;22;
44350;PMS5003;62766;62.622;17.912;2023-06-14T02:48:56;20;18;
44350;PMS5003;62766;62.622;17.912;2023-06-14T02:51:25;21;19;
44350;PMS5003;62766;62.622;17.912;2023-06-14T02:53:54;21;21;
44350;PMS5003;62766;62.622;17.912;2023-06-14T02:56:23;18;18;
44350;PMS5003;62766;62.622;17.912;2023-06-14T02:58:51;27;26;
44350;PMS5003;62766;62.622;17.912;2023-06-14T03:01:19;16;16;
44350;PMS5003;62766;62.622;17.912;2023-06-14T03:03:47;23;23;
44350;PMS5003;62766;62.622;17.912;2023-06-14T03:06:17;19;19;
44350;PMS5003;62766;62.622;17.912;2023-06-14T03:08:45;20;20;
44350;PMS5003;62766;62.622;17.912;2023-06-14T03:11:14;19;19;
44350;PMS5003;62766;62.622;17.912;2023-06-14T03:13:42;18;18;
44350;PMS5003;62766;62.622;17.912;2023-06-14T03:16:11;20;20;
44350;PMS5003;62766;62.622;17.912;2023-06-14T03:18:39;20;20;
44350;PMS5003;62766;62.622;17.912;2023-06-14T03:21:07;20;19;
44350;PMS5003;62766;62.622;17.912;2023-06-14T03:23:36;22;22;
44350;PMS5003;62766;62.622;17.912;2023-06-14T03:26:05;21;21;
44350;PMS5003;62766;62.622;17.912;2023-06-14T03:28:33;16;16;
44350;PMS5003;62766;62.622;17.912;2023-06-14T03:31:01;21;21;
44350;PMS5003;62766;62.622;17.912;2023-06-14T03:33:30;22;21;
44350;PMS5003;62766;62.622;17.912;2023-06-14T03:35:58;19;18;
44350;PMS5003;62766;62.622;17.912;2023-06-14T03:38:27;17;17;
44350;PMS5003;62766;62.622;17.912;2023-06-14T03:40:56;21;19;
44350;PMS5003;62766;62.622;17.912;2023-06-14T03:43:25;22;21;
44350;PMS5003;62766;62.622;17.912;2023-06-14T03:45:54;20;20;
44350;PMS5003;62766;62.622;17.912;2023-06-14T03:48:23;18;18;
44350;PMS5003;62766;62.622;17.912;2023-06-14T03:50:52;20;20;
44350;PMS5003;62766;62.622;17.912;2023-06-14T03:53:21;19;19;
44350;PMS5003;62766;62.622;17.912;2023-06-14T03:55:50;22;22;
44350;PMS5003;62766;62.622;17.912;2023-06-14T03:58:19;18;18;
44350;PMS5003;62766;62.622;17.912;2023-06-14T04:03:32;18;18;
44350;PMS5003;62766;62.622;17.912;2023-06-14T04:06:00;16;16;
44350;PMS5003;62766;62.622;17.912;2023-06-14T04:08:29;21;21;
44350;PMS5003;62766;62.622;17.912;2023-06-14T04:10:59;20;19;
44350;PMS5003;62766;62.622;17.912;2023-06-14T04:13:27;17;17;
44350;PMS5003;62766;62.622;17.912;2023-06-14T04:15:55;16;15;
44350;PMS5003;62766;62.622;17.912;2023-06-14T04:18:24;19;18;
44350;PMS5003;62766;62.622;17.912;2023-06-14T04:20:54;15;15;
44350;PMS5003;62766;62.622;17.912;2023-06-14T04:23:22;17;16;
44350;PMS5003;62766;62.622;17.912;2023-06-14T04:25:50;19;17;
44350;PMS5003;62766;62.622;17.912;2023-06-14T04:28:19;14;14;
44350;PMS5003;62766;62.622;17.912;2023-06-14T04:30:47;12;12;
44350;PMS5003;62766;62.622;17.912;2023-06-14T04:33:17;17;17;
44350;PMS5003;62766;62.622;17.912;2023-06-14T04:35:45;20;20;
44350;PMS5003;62766;62.622;17.912;2023-06-14T04:38:14;18;18;
44350;PMS5003;62766;62.622;17.912;2023-06-14T04:40:42;18;16;
44350;PMS5003;62766;62.622;17.912;2023-06-14T04:43:11;17;17;
44350;PMS5003;62766;62.622;17.912;2023-06-14T04:45:39;16;16;
44350;PMS5003;62766;62.622;17.912;2023-06-14T04:48:08;13;13;
44350;PMS5003;62766;62.622;17.912;2023-06-14T04:50:36;22;22;
44350;PMS5003;62766;62.622;17.912;2023-06-14T04:53:05;18;18;
44350;PMS5003;62766;62.622;17.912;2023-06-14T04:55:35;19;17;
44350;PMS5003;62766;62.622;17.912;2023-06-14T04:58:04;27;22;
44350;PMS5003;62766;62.622;17.912;2023-06-14T05:00:32;18;18;
44350;PMS5003;62766;62.622;17.912;2023-06-14T05:03:00;17;16;
44350;PMS5003;62766;62.622;17.912;2023-06-14T05:05:30;23;23;
44350;PMS5003;62766;62.622;17.912;2023-06-14T05:07:58;17;17;
44350;PMS5003;62766;62.622;17.912;2023-06-14T05:10:27;17;16;
44350;PMS5003;62766;62.622;17.912;2023-06-14T05:12:56;17;17;
44350;PMS5003;62766;62.622;17.912;2023-06-14T05:15:24;16;14;
44350;PMS5003;62766;62.622;17.912;2023-06-14T05:17:52;17;15;
44350;PMS5003;62766;62.622;17.912;2023-06-14T05:20:21;22;20;
44350;PMS5003;62766;62.622;17.912;2023-06-14T05:22:51;21;18;
44350;PMS5003;62766;62.622;17.912;2023-06-14T05:25:21;15;15;
44350;PMS5003;62766;62.622;17.912;2023-06-14T05:27:49;15;13;
44350;PMS5003;62766;62.622;17.912;2023-06-14T05:30:17;15;13;
44350;PMS5003;62766;62.622;17.912;2023-06-14T05:32:45;13;13;
44350;PMS5003;62766;62.622;17.912;2023-06-14T05:35:13;15;12;
44350;PMS5003;62766;62.622;17.912;2023-06-14T05:37:42;14;12;
44350;PMS5003;62766;62.622;17.912;2023-06-14T05:40:11;11;9;
44350;PMS5003;62766;62.622;17.912;2023-06-14T05:42:40;13;13;
44350;PMS5003;62766;62.622;17.912;2023-06-14T05:45:08;11;11;
44350;PMS5003;62766;62.622;17.912;2023-06-14T05:47:37;8;8;
44350;PMS5003;62766;62.622;17.912;2023-06-14T05:50:06;14;12;
44350;PMS5003;62766;62.622;17.912;2023-06-14T05:52:34;11;11;
44350;PMS5003;62766;62.622;17.912;2023-06-14T05:55:02;15;14;
44350;PMS5003;62766;62.622;17.912;2023-06-14T05:57:32;11;11;
44350;PMS5003;62766;62.622;17.912;2023-06-14T06:00:00;6;6;
44350;PMS5003;62766;62.622;17.912;2023-06-14T06:02:28;6;6;
44350;PMS5003;62766;62.622;17.912;2023-06-14T06:04:58;10;10;
44350;PMS5003;62766;62.622;17.912;2023-06-14T06:07:26;10;8;
44350;PMS5003;62766;62.622;17.912;2023-06-14T06:09:54;7;7;
44350;PMS5003;62766;62.622;17.912;2023-06-14T06:12:22;7;7;
44350;PMS5003;62766;62.622;17.912;2023-06-14T06:14:50;8;8;
44350;PMS5003;62766;62.622;17.912;2023-06-14T06:17:19;10;8;
44350;PMS5003;62766;62.622;17.912;2023-06-14T06:19:47;8;7;
44350;PMS5003;62766;62.622;17.912;2023-06-14T06:22:15;8;8;
44350;PMS5003;62766;62.622;17.912;2023-06-14T06:24:43;11;8;
44350;PMS5003;62766;62.622;17.912;2023-06-14T06:27:12;7;7;
44350;PMS5003;62766;62.622;17.912;2023-06-14T06:29:41;11;10;
44350;PMS5003;62766;62.622;17.912;2023-06-14T06:32:10;9;9;
44350;PMS5003;62766;62.622;17.912;2023-06-14T06:34:38;7;7;
44350;PMS5003;62766;62.622;17.912;2023-06-14T06:37:07;16;16;
44350;PMS5003;62766;62.622;17.912;2023-06-14T06:39:35;15;15;
44350;PMS5003;62766;62.622;17.912;2023-06-14T06:42:04;12;12;
44350;PMS5003;62766;62.622;17.912;2023-06-14T06:44:33;18;15;
44350;PMS5003;62766;62.622;17.912;2023-06-14T06:47:01;14;14;
44350;PMS5003;62766;62.622;17.912;2023-06-14T06:49:30;12;12;
44350;PMS5003;62766;62.622;17.912;2023-06-14T06:52:00;10;10;
44350;PMS5003;62766;62.622;17.912;2023-06-14T06:54:30;13;13;
44350;PMS5003;62766;62.622;17.912;2023-06-14T06:57:00;18;16;
44350;PMS5003;62766;62.622;17.912;2023-06-14T06:59:28;13;13;
44350;PMS5003;62766;62.622;17.912;2023-06-14T07:01:57;17;17;
44350;PMS5003;62766;62.622;17.912;2023-06-14T07:04:25;13;11;
44350;PMS5003;62766;62.622;17.912;2023-06-14T07:06:53;11;11;
44350;PMS5003;62766;62.622;17.912;2023-06-14T07:09:21;11;11;
44350;PMS5003;62766;62.622;17.912;2023-06-14T07:11:50;11;10;
44350;PMS5003;62766;62.622;17.912;2023-06-14T07:14:18;12;10;
44350;PMS5003;62766;62.622;17.912;2023-06-14T07:16:46;12;11;
44350;PMS5003;62766;62.622;17.912;2023-06-14T07:19:15;10;9;
44350;PMS5003;62766;62.622;17.912;2023-06-14T07:21:43;7;7;
44350;PMS5003;62766;62.622;17.912;2023-06-14T07:24:11;11;11;
44350;PMS5003;62766;62.622;17.912;2023-06-14T07:26:39;9;9;
44350;PMS5003;62766;62.622;17.912;2023-06-14T07:29:07;9;9;
44350;PMS5003;62766;62.622;17.912;2023-06-14T07:31:35;10;10;
44350;PMS5003;62766;62.622;17.912;2023-06-14T07:34:04;12;12;
44350;PMS5003;62766;62.622;17.912;2023-06-14T07:36:32;13;11;
44350;PMS5003;62766;62.622;17.912;2023-06-14T07:39:00;9;8;
44350;PMS5003;62766;62.622;17.912;2023-06-14T07:41:28;10;10;
44350;PMS5003;62766;62.622;17.912;2023-06-14T07:43:57;12;10;
44350;PMS5003;62766;62.622;17.912;2023-06-14T07:46:26;15;12;
44350;PMS5003;62766;62.622;17.912;2023-06-14T07:48:54;10;10;
44350;PMS5003;62766;62.622;17.912;2023-06-14T07:51:22;8;8;
44350;PMS5003;62766;62.622;17.912;2023-06-14T07:53:50;9;9;
44350;PMS5003;62766;62.622;17.912;2023-06-14T07:56:19;8;8;
44350;PMS5003;62766;62.622;17.912;2023-06-14T07:58:47;9;8;
44350;PMS5003;62766;62.622;17.912;2023-06-14T08:01:15;9;8;
44350;PMS5003;62766;62.622;17.912;2023-06-14T08:03:43;7;7;
44350;PMS5003;62766;62.622;17.912;2023-06-14T08:06:11;8;7;
44350;PMS5003;62766;62.622;17.912;2023-06-14T08:08:39;10;8;
44350;PMS5003;62766;62.622;17.912;2023-06-14T08:11:09;7;7;
44350;PMS5003;62766;62.622;17.912;2023-06-14T08:13:37;8;8;
44350;PMS5003;62766;62.622;17.912;2023-06-14T08:16:05;9;8;
44350;PMS5003;62766;62.622;17.912;2023-06-14T08:18:33;8;7;
44350;PMS5003;62766;62.622;17.912;2023-06-14T08:21:01;9;9;
44350;PMS5003;62766;62.622;17.912;2023-06-14T08:23:29;9;9;
44350;PMS5003;62766;62.622;17.912;2023-06-14T08:25:57;7;7;
44350;PMS5003;62766;62.622;17.912;2023-06-14T08:28:26;10;10;
44350;PMS5003;62766;62.622;17.912;2023-06-14T08:30:54;8;8;
44350;PMS5003;62766;62.622;17.912;2023-06-14T08:33:22;10;8;
44350;PMS5003;62766;62.622;17.912;2023-06-14T08:35:50;9;9;
44350;PMS5003;62766;62.622;17.912;2023-06-14T08:38:19;8;7;
44350;PMS5003;62766;62.622;17.912;2023-06-14T08:40:48;8;8;
44350;PMS5003;62766;62.622;17.912;2023-06-14T08:43:20;12;10;
44350;PMS5003;62766;62.622;17.912;2023-06-14T08:45:48;11;11;
44350;PMS5003;62766;62.622;17.912;2023-06-14T08:48:22;7;7;
44350;PMS5003;62766;62.622;17.912;2023-06-14T08:50:53;10;10;
44350;PMS5003;62766;62.622;17.912;2023-06-14T08:53:23;11;10;
44350;PMS5003;62766;62.622;17.912;2023-06-14T08:55:53;9;9;
44350;PMS5003;62766;62.622;17.912;2023-06-14T08:58:21;9;8;
44350;PMS5003;62766;62.622;17.912;2023-06-14T09:00:49;10;6;
44350;PMS5003;62766;62.622;17.912;2023-06-14T09:03:17;8;8;
44350;PMS5003;62766;62.622;17.912;2023-06-14T09:05:45;11;10;
44350;PMS5003;62766;62.622;17.912;2023-06-14T09:08:13;9;7;
44350;PMS5003;62766;62.622;17.912;2023-06-14T09:10:41;8;8;
44350;PMS5003;62766;62.622;17.912;2023-06-14T09:13:09;8;8;
44350;PMS5003;62766;62.622;17.912;2023-06-14T09:15:37;7;7;
44350;PMS5003;62766;62.622;17.912;2023-06-14T09:18:05;7;7;
44350;PMS5003;62766;62.622;17.912;2023-06-14T09:20:33;8;7;
44350;PMS5003;62766;62.622;17.912;2023-06-14T09:23:04;7;7;
44350;PMS5003;62766;62.622;17.912;2023-06-14T09:25:34;8;8;
44350;PMS5003;62766;62.622;17.912;2023-06-14T09:28:10;8;8;
44350;PMS5003;62766;62.622;17.912;2023-06-14T09:30:38;7;7;
44350;PMS5003;62766;62.622;17.912;2023-06-14T09:33:06;7;7;
44350;PMS5003;62766;62.622;17.912;2023-06-14T09:35:34;9;9;
44350;PMS5003;62766;62.622;17.912;2023-06-14T09:38:02;7;7;
44350;PMS5003;62766;62.622;17.912;2023-06-14T09:40:33;7;7;
44350;PMS5003;62766;62.622;17.912;2023-06-14T09:43:03;11;10;
44350;PMS5003;62766;62.622;17.912;2023-06-14T09:45:33;9;8;
44350;PMS5003;62766;62.622;17.912;2023-06-14T09:48:02;8;8;
44350;PMS5003;62766;62.622;17.912;2023-06-14T09:50:32;8;8;
44350;PMS5003;62766;62.622;17.912;2023-06-14T09:53:01;9;9;
44350;PMS5003;62766;62.622;17.912;2023-06-14T09:55:34;6;6;
44350;PMS5003;62766;62.622;17.912;2023-06-14T09:58:05;8;8;
44350;PMS5003;62766;62.622;17.912;2023-06-14T10:03:19;10;9;
44350;PMS5003;62766;62.622;17.912;2023-06-14T10:05:52;8;8;
44350;PMS5003;62766;62.622;17.912;2023-06-14T10:08:23;7;7;
44350;PMS5003;62766;62.622;17.912;2023-06-14T10:10:53;8;8;
44350;PMS5003;62766;62.622;17.912;2023-06-14T10:13:25;6;6;
44350;PMS5003;62766;62.622;17.912;2023-06-14T10:15:58;7;7;
44350;PMS5003;62766;62.622;17.912;2023-06-14T10:18:35;8;8;
44350;PMS5003;62766;62.622;17.912;2023-06-14T10:21:13;11;10;
44350;PMS5003;62766;62.622;17.912;2023-06-14T10:23:50;7;7;
44350;PMS5003;62766;62.622;17.912;2023-06-14T10:26:20;9;9;
44350;PMS5003;62766;62.622;17.912;2023-06-14T10:28:56;8;8;
44350;PMS5003;62766;62.622;17.912;2023-06-14T10:31:39;6;6;
44350;PMS5003;62766;62.622;17.912;2023-06-14T10:34:10;7;6;
44350;PMS5003;62766;62.622;17.912;2023-06-14T10:36:42;6;5;
44350;PMS5003;62766;62.622;17.912;2023-06-14T10:39:14;7;6;
44350;PMS5003;62766;62.622;17.912;2023-06-14T10:41:53;8;7;
44350;PMS5003;62766;62.622;17.912;2023-06-14T10:44:38;7;7;
44350;PMS5003;62766;62.622;17.912;2023-06-14T10:47:10;5;5;
44350;PMS5003;62766;62.622;17.912;2023-06-14T10:49:40;5;5;
44350;PMS5003;62766;62.622;17.912;2023-06-14T10:52:11;6;6;
44350;PMS5003;62766;62.622;17.912;2023-06-14T10:54:50;8;8;
44350;PMS5003;62766;62.622;17.912;2023-06-14T10:57:24;8;8;
44350;PMS5003;62766;62.622;17.912;2023-06-14T10:59:52;13;13;
44350;PMS5003;62766;62.622;17.912;2023-06-14T11:02:33;13;12;
44350;PMS5003;62766;62.622;17.912;2023-06-14T11:05:16;10;9;
44350;PMS5003;62766;62.622;17.912;2023-06-14T11:07:55;7;6;
44350;PMS5003;62766;62.622;17.912;2023-06-14T11:10:43;8;8;
44350;PMS5003;62766;62.622;17.912;2023-06-14T11:13:12;7;7;
44350;PMS5003;62766;62.622;17.912;2023-06-14T11:15:43;9;9;
44350;PMS5003;62766;62.622;17.912;2023-06-14T11:18:13;5;5;
44350;PMS5003;62766;62.622;17.912;2023-06-14T11:20:45;6;6;
44350;PMS5003;62766;62.622;17.912;2023-06-14T11:23:14;6;6;
44350;PMS5003;62766;62.622;17.912;2023-06-14T11:25:43;6;6;
44350;PMS5003;62766;62.622;17.912;2023-06-14T11:28:12;10;8;
44350;PMS5003;62766;62.622;17.912;2023-06-14T11:30:40;10;10;
44350;PMS5003;62766;62.622;17.912;2023-06-14T11:33:10;7;7;
44350;PMS5003;62766;62.622;17.912;2023-06-14T11:35:39;7;7;
44350;PMS5003;62766;62.622;17.912;2023-06-14T11:38:07;8;7;
44350;PMS5003;62766;62.622;17.912;2023-06-14T11:40:35;9;9;
44350;PMS5003;62766;62.622;17.912;2023-06-14T11:43:06;8;8;
44350;PMS5003;62766;62.622;17.912;2023-06-14T11:45:35;7;7;
44350;PMS5003;62766;62.622;17.912;2023-06-14T11:48:05;9;9;
44350;PMS5003;62766;62.622;17.912;2023-06-14T11:50:37;7;7;
44350;PMS5003;62766;62.622;17.912;2023-06-14T11:53:06;6;6;
44350;PMS5003;62766;62.622;17.912;2023-06-14T11:55:35;7;7;
44350;PMS5003;62766;62.622;17.912;2023-06-14T11:58:04;6;6;
44350;PMS5003;62766;62.622;17.912;2023-06-14T12:00:32;6;5;
44350;PMS5003;62766;62.622;17.912;2023-06-14T12:03:00;6;5;
44350;PMS5003;62766;62.622;17.912;2023-06-14T12:05:28;6;6;
44350;PMS5003;62766;62.622;17.912;2023-06-14T12:07:58;4;4;
44350;PMS5003;62766;62.622;17.912;2023-06-14T12:10:26;8;8;
44350;PMS5003;62766;62.622;17.912;2023-06-14T12:12:56;6;6;
44350;PMS5003;62766;62.622;17.912;2023-06-14T12:15:27;7;7;
44350;PMS5003;62766;62.622;17.912;2023-06-14T12:17:57;7;7;
44350;PMS5003;62766;62.622;17.912;2023-06-14T12:20:28;9;9;
44350;PMS5003;62766;62.622;17.912;2023-06-14T12:22:58;7;7;
44350;PMS5003;62766;62.622;17.912;2023-06-14T12:25:28;7;7;
44350;PMS5003;62766;62.622;17.912;2023-06-14T12:27:59;7;7;
44350;PMS5003;62766;62.622;17.912;2023-06-14T12:30:31;6;6;
44350;PMS5003;62766;62.622;17.912;2023-06-14T12:32:59;8;8;
44350;PMS5003;62766;62.622;17.912;2023-06-14T12:35:27;7;7;
44350;PMS5003;62766;62.622;17.912;2023-06-14T12:37:55;6;6;
44350;PMS5003;62766;62.622;17.912;2023-06-14T12:40:23;5;5;
44350;PMS5003;62766;62.622;17.912;2023-06-14T12:42:51;7;6;
44350;PMS5003;62766;62.622;17.912;2023-06-14T12:45:20;5;5;
44350;PMS5003;62766;62.622;17.912;2023-06-14T12:47:48;6;6;
44350;PMS5003;62766;62.622;17.912;2023-06-14T12:50:16;8;6;
44350;PMS5003;62766;62.622;17.912;2023-06-14T12:52:44;4;4;
44350;PMS5003;62766;62.622;17.912;2023-06-14T12:55:12;7;5;
44350;PMS5003;62766;62.622;17.912;2023-06-14T12:57:40;5;5;
44350;PMS5003;62766;62.622;17.912;2023-06-14T13:00:10;7;7;
44350;PMS5003;62766;62.622;17.912;2023-06-14T13:02:39;6;6;
44350;PMS5003;62766;62.622;17.912;2023-06-14T13:05:09;5;5;
44350;PMS5003;62766;62.622;17.912;2023-06-14T13:07:37;5;5;
44350;PMS5003;62766;62.622;17.912;2023-06-14T13:10:05;5;5;
44350;PMS5003;62766;62.622;17.912;2023-06-14T13:12:35;8;7;
44350;PMS5003;62766;62.622;17.912;2023-06-14T13:15:03;9;7;
44350;PMS5003;62766;62.622;17.912;2023-06-14T13:17:33;8;8;
44350;PMS5003;62766;62.622;17.912;2023-06-14T13:20:01;4;4;
44350;PMS5003;62766;62.622;17.912;2023-06-14T13:22:29;6;6;
44350;PMS5003;62766;62.622;17.912;2023-06-14T13:24:57;6;6;
44350;PMS5003;62766;62.622;17.912;2023-06-14T13:27:25;7;5;
44350;PMS5003;62766;62.622;17.912;2023-06-14T13:29:55;8;8;
44350;PMS5003;62766;62.622;17.912;2023-06-14T13:32:23;8;8;
44350;PMS5003;62766;62.622;17.912;2023-06-14T13:34:51;6;6;
44350;PMS5003;62766;62.622;17.912;2023-06-14T13:37:19;6;6;
44350;PMS5003;62766;62.622;17.912;2023-06-14T13:39:47;6;6;
44350;PMS5003;62766;62.622;17.912;2023-06-14T13:42:15;6;6;
44350;PMS5003;62766;62.622;17.912;2023-06-14T13:44:43;9;7;
44350;PMS5003;62766;62.622;17.912;2023-06-14T13:47:11;7;7;
44350;PMS5003;62766;62.622;17.912;2023-06-14T13:49:39;7;7;
44350;PMS5003;62766;62.622;17.912;2023-06-14T13:52:08;10;8;
44350;PMS5003;62766;62.622;17.912;2023-06-14T13:54:36;9;7;
44350;PMS5003;62766;62.622;17.912;2023-06-14T13:57:05;7;7;
44350;PMS5003;62766;62.622;17.912;2023-06-14T13:59:32;7;6;
44350;PMS5003;62766;62.622;17.912;2023-06-14T14:02:01;8;8;
44350;PMS5003;62766;62.622;17.912;2023-06-14T14:04:29;8;8;
44350;PMS5003;62766;62.622;17.912;2023-06-14T14:06:57;8;7;
44350;PMS5003;62766;62.622;17.912;2023-06-14T14:09:25;8;8;
44350;PMS5003;62766;62.622;17.912;2023-06-14T14:11:53;9;9;
44350;PMS5003;62766;62.622;17.912;2023-06-14T14:14:21;8;8;
44350;PMS5003;62766;62.622;17.912;2023-06-14T14:16:49;10;10;
44350;PMS5003;62766;62.622;17.912;2023-06-14T14:19:18;8;8;
44350;PMS5003;62766;62.622;17.912;2023-06-14T14:21:46;8;8;
44350;PMS5003;62766;62.622;17.912;2023-06-14T14:24:14;8;8;
44350;PMS5003;62766;62.622;17.912;2023-06-14T14:26:43;9;9;
44350;PMS5003;62766;62.622;17.912;2023-06-14T14:29:12;8;8;
44350;PMS5003;62766;62.622;17.912;2023-06-14T14:31:40;9;7;
44350;PMS5003;62766;62.622;17.912;2023-06-14T14:34:10;9;7;
44350;PMS5003;62766;62.622;17.912;2023-06-14T14:36:38;7;7;
44350;PMS5003;62766;62.622;17.912;2023-06-14T14:39:06;8;8;
44350;PMS5003;62766;62.622;17.912;2023-06-14T14:41:35;14;13;
44350;PMS5003;62766;62.622;17.912;2023-06-14T14:44:03;6;6;
44350;PMS5003;62766;62.622;17.912;2023-06-14T14:46:32;10;10;
44350;PMS5003;62766;62.622;17.912;2023-06-14T14:49:01;11;11;
44350;PMS5003;62766;62.622;17.912;2023-06-14T14:51:29;8;8;
44350;PMS5003;62766;62.622;17.912;2023-06-14T14:53:57;7;7;
44350;PMS5003;62766;62.622;17.912;2023-06-14T14:56:25;8;7;
44350;PMS5003;62766;62.622;17.912;2023-06-14T14:58:53;9;7;
44350;PMS5003;62766;62.622;17.912;2023-06-14T15:01:21;9;8;
44350;PMS5003;62766;62.622;17.912;2023-06-14T15:03:49;6;6;
44350;PMS5003;62766;62.622;17.912;2023-06-14T15:06:17;9;7;
44350;PMS5003;62766;62.622;17.912;2023-06-14T15:08:45;8;8;
44350;PMS5003;62766;62.622;17.912;2023-06-14T15:11:14;10;10;
44350;PMS5003;62766;62.622;17.912;2023-06-14T15:13:42;9;9;
44350;PMS5003;62766;62.622;17.912;2023-06-14T15:16:11;9;9;
44350;PMS5003;62766;62.622;17.912;2023-06-14T15:18:39;7;7;
44350;PMS5003;62766;62.622;17.912;2023-06-14T15:21:09;10;10;
44350;PMS5003;62766;62.622;17.912;2023-06-14T15:23:37;8;7;
44350;PMS5003;62766;62.622;17.912;2023-06-14T15:26:05;11;10;
44350;PMS5003;62766;62.622;17.912;2023-06-14T15:28:33;11;11;
44350;PMS5003;62766;62.622;17.912;2023-06-14T15:31:01;8;8;
44350;PMS5003;62766;62.622;17.912;2023-06-14T15:33:29;9;9;
44350;PMS5003;62766;62.622;17.912;2023-06-14T15:35:58;9;8;
44350;PMS5003;62766;62.622;17.912;2023-06-14T15:38:27;12;10;
44350;PMS5003;62766;62.622;17.912;2023-06-14T15:40:55;9;9;
44350;PMS5003;62766;62.622;17.912;2023-06-14T15:43:23;9;9;
44350;PMS5003;62766;62.622;17.912;2023-06-14T15:45:51;8;8;
44350;PMS5003;62766;62.622;17.912;2023-06-14T15:48:19;10;10;
44350;PMS5003;62766;62.622;17.912;2023-06-14T15:50:47;10;10;
44350;PMS5003;62766;62.622;17.912;2023-06-14T15:53:15;9;8;
44350;PMS5003;62766;62.622;17.912;2023-06-14T15:55:43;8;8;
44350;PMS5003;62766;62.622;17.912;2023-06-14T15:58:11;9;9;
44350;PMS5003;62766;62.622;17.912;2023-06-14T16:03:30;13;13;
44350;PMS5003;62766;62.622;17.912;2023-06-14T16:05:58;10;10;
44350;PMS5003;62766;62.622;17.912;2023-06-14T16:08:26;10;8;
44350;PMS5003;62766;62.622;17.912;2023-06-14T16:10:54;8;8;
44350;PMS5003;62766;62.622;17.912;2023-06-14T16:13:22;8;8;
44350;PMS5003;62766;62.622;17.912;2023-06-14T16:15:52;13;12;
44350;PMS5003;62766;62.622;17.912;2023-06-14T16:18:21;6;6;
44350;PMS5003;62766;62.622;17.912;2023-06-14T16:20:50;6;6;
44350;PMS5003;62766;62.622;17.912;2023-06-14T16:23:18;9;9;
44350;PMS5003;62766;62.622;17.912;2023-06-14T16:25:46;8;8;
44350;PMS5003;62766;62.622;17.912;2023-06-14T16:28:14;9;9;
44350;PMS5003;62766;62.622;17.912;2023-06-14T16:30:43;8;8;
44350;PMS5003;62766;62.622;17.912;2023-06-14T16:33:11;9;9;
44350;PMS5003;62766;62.622;17.912;2023-06-14T16:35:39;10;10;
44350;PMS5003;62766;62.622;17.912;2023-06-14T16:38:07;10;10;